createdAt,value
2023-05-05T00:00:24.133Z,1182.00
2023-05-05T00:01:24.158Z,1178.00
2023-05-05T00:02:24.269Z,1176.00
2023-05-05T00:03:24.295Z,1177.00
2023-05-05T00:04:24.323Z,1176.00
2023-05-05T00:05:24.268Z,1178.00
2023-05-05T00:06:24.343Z,1176.00
2023-05-05T00:07:24.317Z,1176.00
2023-05-05T00:08:24.373Z,1174.00
2023-05-05T00:09:24.403Z,1173.00
2023-05-05T00:10:24.438Z,1174.00
2023-05-05T00:11:24.461Z,1173.00
2023-05-05T00:12:24.512Z,1174.00
2023-05-05T00:13:24.570Z,1174.00
2023-05-05T00:14:24.580Z,1174.00
2023-05-05T00:15:24.618Z,1173.00
2023-05-05T00:16:24.673Z,1171.00
2023-05-05T00:17:24.708Z,1171.00
2023-05-05T00:18:24.728Z,1171.00
2023-05-05T00:19:24.713Z,1169.00
2023-05-05T00:20:24.764Z,1170.00
2023-05-05T00:21:24.812Z,1170.00
2023-05-05T00:22:24.850Z,1169.00
2023-05-05T00:23:24.890Z,1168.00
2023-05-05T00:24:24.888Z,1168.00
2023-05-05T00:25:24.916Z,1168.00
2023-05-05T00:26:24.962Z,1171.00
2023-05-05T00:27:25.021Z,1172.00
2023-05-05T00:28:25.062Z,1170.00
2023-05-05T00:29:25.102Z,1170.00
2023-05-05T00:30:25.128Z,1170.00
2023-05-05T00:31:25.189Z,1170.00
2023-05-05T00:32:25.216Z,1171.00
2023-05-05T00:33:25.211Z,1173.00
2023-05-05T00:34:25.270Z,1175.00
2023-05-05T00:35:25.268Z,1173.00
2023-05-05T00:36:25.320Z,1170.00
2023-05-05T00:37:25.372Z,1171.00
2023-05-05T00:38:25.359Z,1167.00
2023-05-05T00:39:25.407Z,1168.00
2023-05-05T00:40:25.457Z,1165.00
2023-05-05T00:41:25.480Z,1164.00
2023-05-05T00:42:25.943Z,1162.00
2023-05-05T00:43:25.526Z,1159.00
2023-05-05T00:44:25.566Z,1158.00
2023-05-05T00:45:25.597Z,1162.00
2023-05-05T00:46:25.681Z,1166.00
2023-05-05T00:47:25.718Z,1164.00
2023-05-05T00:48:25.718Z,1163.00
2023-05-05T00:49:25.755Z,1161.00
2023-05-05T00:50:25.798Z,1159.00
2023-05-05T00:51:25.828Z,1160.00
2023-05-05T00:52:25.879Z,1160.00
2023-05-05T00:53:25.918Z,1160.00
2023-05-05T00:54:25.915Z,1158.00
2023-05-05T00:55:25.981Z,1155.00
2023-05-05T00:56:25.984Z,1153.00
2023-05-05T00:57:26.052Z,1152.00
2023-05-05T00:58:26.069Z,1153.00
2023-05-05T00:59:26.082Z,1150.00
2023-05-05T01:00:26.139Z,1148.00
2023-05-05T01:01:26.151Z,1150.00
2023-05-05T01:02:26.338Z,1148.00
2023-05-05T01:03:26.330Z,1152.00
2023-05-05T01:04:26.997Z,1151.00
2023-05-05T01:05:26.303Z,1154.00
2023-05-05T01:06:26.347Z,1153.00
2023-05-05T01:07:26.387Z,1152.00
2023-05-05T01:08:26.400Z,1149.00
2023-05-05T01:09:26.459Z,1145.00
2023-05-05T01:10:26.718Z,1147.00
2023-05-05T01:11:26.483Z,1149.00
2023-05-05T01:12:26.509Z,1145.00
2023-05-05T01:13:26.613Z,1144.00
2023-05-05T01:14:26.568Z,1142.00
2023-05-05T01:15:26.632Z,1138.00
2023-05-05T01:16:26.654Z,1139.00
2023-05-05T01:17:26.744Z,1138.00
2023-05-05T01:18:26.697Z,1138.00
2023-05-05T01:19:26.738Z,1138.00
2023-05-05T01:20:26.778Z,1135.00
2023-05-05T01:21:26.799Z,1134.00
2023-05-05T01:22:26.853Z,1137.00
2023-05-05T01:23:26.876Z,1134.00
2023-05-05T01:24:26.877Z,1135.00
2023-05-05T01:25:26.937Z,1135.00
2023-05-05T01:26:26.968Z,1132.00
2023-05-05T01:27:27.011Z,1133.00
2023-05-05T01:28:27.041Z,1135.00
2023-05-05T01:29:27.049Z,1135.00
2023-05-05T01:30:27.077Z,1135.00
2023-05-05T01:31:27.180Z,1133.00
2023-05-05T01:32:27.188Z,1133.00
2023-05-05T01:33:27.208Z,1133.00
2023-05-05T01:34:27.232Z,1131.00
2023-05-05T01:35:27.223Z,1131.00
2023-05-05T01:36:27.296Z,1129.00
2023-05-05T01:37:27.312Z,1129.00
2023-05-05T01:38:27.348Z,1125.00
2023-05-05T01:39:27.365Z,1124.00
2023-05-05T01:40:27.424Z,1122.00
2023-05-05T01:41:27.445Z,1123.00
2023-05-05T01:42:27.482Z,1119.00
2023-05-05T01:43:27.484Z,1113.00
2023-05-05T01:44:27.550Z,1118.00
2023-05-05T01:45:27.592Z,1117.00
2023-05-05T01:46:27.609Z,1118.00
2023-05-05T01:47:27.667Z,1117.00
2023-05-05T01:48:27.674Z,1117.00
2023-05-05T01:49:27.705Z,1118.00
2023-05-05T01:50:27.735Z,1116.00
2023-05-05T01:51:27.819Z,1117.00
2023-05-05T01:52:27.810Z,1117.00
2023-05-05T01:53:27.845Z,1119.00
2023-05-05T01:54:27.850Z,1118.00
2023-05-05T01:55:27.888Z,1116.00
2023-05-05T01:56:27.912Z,1115.00
2023-05-05T01:57:27.978Z,1116.00
2023-05-05T01:58:28.004Z,1116.00
2023-05-05T01:59:28.030Z,1117.00
2023-05-05T02:00:28.037Z,1118.00
2023-05-05T02:01:28.113Z,1116.00
2023-05-05T02:02:28.553Z,1118.00
2023-05-05T02:03:28.150Z,1120.00
2023-05-05T02:04:28.166Z,1121.00
2023-05-05T02:05:28.216Z,1118.00
2023-05-05T02:06:28.228Z,1114.00
2023-05-05T02:07:28.270Z,1114.00
2023-05-05T02:08:28.312Z,1111.00
2023-05-05T02:09:28.353Z,1109.00
2023-05-05T02:10:28.374Z,1109.00
2023-05-05T02:11:28.383Z,1110.00
2023-05-05T02:12:28.448Z,1109.00
2023-05-05T02:13:28.486Z,1111.00
2023-05-05T02:14:28.464Z,1113.00
2023-05-05T02:15:28.533Z,1116.00
2023-05-05T02:16:28.554Z,1115.00
2023-05-05T02:17:29.030Z,1115.00
2023-05-05T02:18:28.689Z,1115.00
2023-05-05T02:19:28.628Z,1115.00
2023-05-05T02:20:28.724Z,1113.00
2023-05-05T02:21:28.715Z,1112.00
2023-05-05T02:22:28.773Z,1110.00
2023-05-05T02:23:28.790Z,1108.00
2023-05-05T02:24:28.809Z,1108.00
2023-05-05T02:25:28.829Z,1107.00
2023-05-05T02:26:28.908Z,1109.00
2023-05-05T02:27:28.932Z,1111.00
2023-05-05T02:28:28.982Z,1112.00
2023-05-05T02:29:28.980Z,1109.00
2023-05-05T02:30:29.007Z,1109.00
2023-05-05T02:31:29.157Z,1109.00
2023-05-05T02:32:29.092Z,1108.00
2023-05-05T02:33:29.120Z,1111.00
2023-05-05T02:34:29.129Z,1110.00
2023-05-05T02:35:29.137Z,1105.00
2023-05-05T02:36:29.205Z,1106.00
2023-05-05T02:37:29.218Z,1103.00
2023-05-05T02:38:29.273Z,1102.00
2023-05-05T02:39:29.274Z,1099.00
2023-05-05T02:40:29.330Z,1100.00
2023-05-05T02:41:29.340Z,1098.00
2023-05-05T02:42:29.400Z,1098.00
2023-05-05T02:43:29.431Z,1097.00
2023-05-05T02:44:29.457Z,1100.00
2023-05-05T02:45:29.460Z,1101.00
2023-05-05T02:46:29.541Z,1099.00
2023-05-05T02:47:29.557Z,1102.00
2023-05-05T02:48:29.959Z,1100.00
2023-05-05T02:49:29.592Z,1098.00
2023-05-05T02:50:29.656Z,1097.00
2023-05-05T02:51:29.680Z,1097.00
2023-05-05T02:52:29.724Z,1098.00
2023-05-05T02:53:29.754Z,1098.00
2023-05-05T02:54:29.761Z,1096.00
2023-05-05T02:55:29.837Z,1097.00
2023-05-05T02:56:29.856Z,1095.00
2023-05-05T02:57:29.870Z,1096.00
2023-05-05T02:58:29.904Z,1097.00
2023-05-05T02:59:29.948Z,1094.00
2023-05-05T03:00:29.960Z,1091.00
2023-05-05T03:01:30.034Z,1090.00
2023-05-05T03:02:30.086Z,1092.00
2023-05-05T03:03:30.602Z,1090.00
2023-05-05T03:04:31.001Z,1092.00
2023-05-05T03:05:30.127Z,1091.00
2023-05-05T03:06:30.172Z,1093.00
2023-05-05T03:07:30.206Z,1097.00
2023-05-05T03:08:30.272Z,1097.00
2023-05-05T03:09:30.282Z,1091.00
2023-05-05T03:10:30.313Z,1091.00
2023-05-05T03:11:30.327Z,1089.00
2023-05-05T03:12:30.385Z,1086.00
2023-05-05T03:13:30.414Z,1088.00
2023-05-05T03:14:33.266Z,1088.00
2023-05-05T03:15:30.427Z,1084.00
2023-05-05T03:16:30.466Z,1082.00
2023-05-05T03:17:30.448Z,1083.00
2023-05-05T03:18:30.405Z,1083.00
2023-05-05T03:19:30.420Z,1083.00
2023-05-05T03:20:30.388Z,1086.00
2023-05-05T03:21:30.390Z,1086.00
2023-05-05T03:22:30.392Z,1084.00
2023-05-05T03:23:30.396Z,1080.00
2023-05-05T03:24:30.390Z,1078.00
2023-05-05T03:25:30.361Z,1076.00
2023-05-05T03:26:30.360Z,1077.00
2023-05-05T03:27:30.384Z,1075.00
2023-05-05T03:28:30.335Z,1077.00
2023-05-05T03:29:30.369Z,1079.00
2023-05-05T03:30:30.327Z,1077.00
2023-05-05T03:31:30.411Z,1077.00
2023-05-05T03:32:30.400Z,1078.00
2023-05-05T03:33:30.300Z,1078.00
2023-05-05T03:34:30.320Z,1079.00
2023-05-05T03:35:30.293Z,1082.00
2023-05-05T03:36:30.307Z,1082.00
2023-05-05T03:37:30.289Z,1077.00
2023-05-05T03:38:30.274Z,1075.00
2023-05-05T03:39:30.292Z,1074.00
2023-05-05T03:40:42.971Z,1073.00
2023-05-05T03:41:31.259Z,1073.00
2023-05-05T03:42:30.241Z,1075.00
2023-05-05T03:43:30.243Z,1074.00
2023-05-05T03:44:30.218Z,1072.00
2023-05-05T03:45:30.241Z,1071.00
2023-05-05T03:46:30.215Z,1073.00
2023-05-05T03:47:30.274Z,1073.00
2023-05-05T03:48:30.217Z,1072.00
2023-05-05T03:49:30.188Z,1070.00
2023-05-05T03:50:30.192Z,1070.00
2023-05-05T03:51:30.205Z,1067.00
2023-05-05T03:52:30.174Z,1068.00
2023-05-05T03:53:30.240Z,1064.00
2023-05-05T03:54:30.249Z,1062.00
2023-05-05T03:55:30.289Z,1062.00
2023-05-05T03:56:30.342Z,1063.00
2023-05-05T03:57:30.382Z,1062.00
2023-05-05T03:58:30.403Z,1061.00
2023-05-05T03:59:30.438Z,1060.00
2023-05-05T04:00:30.461Z,1058.00
2023-05-05T04:01:30.505Z,1060.00
2023-05-05T04:02:30.607Z,1060.00
2023-05-05T04:03:30.764Z,1058.00
2023-05-05T04:04:30.659Z,1055.00
2023-05-05T04:05:30.643Z,1055.00
2023-05-05T04:06:30.708Z,1056.00
2023-05-05T04:07:30.756Z,1054.00
2023-05-05T04:08:31.012Z,1053.00
2023-05-05T04:09:30.834Z,1051.00
2023-05-05T04:10:30.849Z,1053.00
2023-05-05T04:11:30.885Z,1054.00
2023-05-05T04:12:30.974Z,1053.00
2023-05-05T04:13:30.976Z,1053.00
2023-05-05T04:14:31.025Z,1050.00
2023-05-05T04:15:31.064Z,1051.00
2023-05-05T04:16:31.192Z,1051.00
2023-05-05T04:17:31.168Z,1052.00
2023-05-05T04:18:31.185Z,1051.00
2023-05-05T04:19:31.183Z,1053.00
2023-05-05T04:20:31.217Z,1052.00
2023-05-05T04:21:31.263Z,1053.00
2023-05-05T04:22:31.315Z,1052.00
2023-05-05T04:23:31.344Z,1051.00
2023-05-05T04:24:31.393Z,1049.00
2023-05-05T04:25:31.427Z,1049.00
2023-05-05T04:26:31.466Z,1048.00
2023-05-05T04:27:31.510Z,1048.00
2023-05-05T04:28:31.517Z,1049.00
2023-05-05T04:29:31.562Z,1050.00
2023-05-05T04:30:31.629Z,1051.00
2023-05-05T04:31:31.660Z,1054.00
2023-05-05T04:32:31.704Z,1052.00
2023-05-05T04:33:31.703Z,1051.00
2023-05-05T04:34:31.726Z,1053.00
2023-05-05T04:35:31.766Z,1052.00
2023-05-05T04:36:31.781Z,1052.00
2023-05-05T04:37:31.847Z,1053.00
2023-05-05T04:38:31.874Z,1052.00
2023-05-05T04:39:31.915Z,1050.00
2023-05-05T04:40:31.934Z,1047.00
2023-05-05T04:41:31.972Z,1045.00
2023-05-05T04:42:32.027Z,1045.00
2023-05-05T04:43:32.024Z,1043.00
2023-05-05T04:44:32.079Z,1043.00
2023-05-05T04:45:32.157Z,1040.00
2023-05-05T04:46:32.175Z,1039.00
2023-05-05T04:47:32.225Z,1038.00
2023-05-05T04:48:32.280Z,1035.00
2023-05-05T04:49:32.287Z,1035.00
2023-05-05T04:50:32.337Z,1035.00
2023-05-05T04:51:32.356Z,1037.00
2023-05-05T04:52:32.387Z,1040.00
2023-05-05T04:53:32.421Z,1043.00
2023-05-05T04:54:32.456Z,1043.00
2023-05-05T04:55:32.484Z,1041.00
2023-05-05T04:56:32.521Z,1038.00
2023-05-05T04:57:32.564Z,1039.00
2023-05-05T04:58:32.596Z,1037.00
2023-05-05T04:59:32.656Z,1035.00
2023-05-05T05:00:32.665Z,1036.00
2023-05-05T05:01:32.667Z,1038.00
2023-05-05T05:02:32.777Z,1039.00
2023-05-05T05:03:32.887Z,1038.00
2023-05-05T05:04:32.756Z,1037.00
2023-05-05T05:05:32.923Z,1036.00
2023-05-05T05:06:32.889Z,1039.00
2023-05-05T05:07:32.940Z,1035.00
2023-05-05T05:08:32.941Z,1035.00
2023-05-05T05:09:32.966Z,1032.00
2023-05-05T05:10:33.060Z,1032.00
2023-05-05T05:11:33.049Z,1032.00
2023-05-05T05:12:33.097Z,1033.00
2023-05-05T05:13:33.105Z,1026.00
2023-05-05T05:14:33.155Z,1030.00
2023-05-05T05:15:33.138Z,1031.00
2023-05-05T05:16:33.224Z,1030.00
2023-05-05T05:17:33.244Z,1031.00
2023-05-05T05:18:33.262Z,1030.00
2023-05-05T05:19:33.303Z,1029.00
2023-05-05T05:20:33.322Z,1026.00
2023-05-05T05:21:33.360Z,1025.00
2023-05-05T05:22:33.379Z,1026.00
2023-05-05T05:23:33.481Z,1022.00
2023-05-05T05:24:33.479Z,1021.00
2023-05-05T05:25:33.526Z,1020.00
2023-05-05T05:26:33.543Z,1020.00
2023-05-05T05:27:33.609Z,1021.00
2023-05-05T05:28:34.006Z,1021.00
2023-05-05T05:29:33.663Z,1020.00
2023-05-05T05:30:33.692Z,1021.00
2023-05-05T05:31:33.743Z,1023.00
2023-05-05T05:32:33.766Z,1023.00
2023-05-05T05:33:34.029Z,1021.00
2023-05-05T05:34:33.802Z,1017.00
2023-05-05T05:35:33.818Z,1017.00
2023-05-05T05:36:33.885Z,1015.00
2023-05-05T05:37:33.884Z,1017.00
2023-05-05T05:38:34.012Z,1018.00
2023-05-05T05:39:33.974Z,1017.00
2023-05-05T05:40:33.996Z,1019.00
2023-05-05T05:41:34.021Z,1017.00
2023-05-05T05:42:34.041Z,1016.00
2023-05-05T05:43:34.093Z,1013.00
2023-05-05T05:44:34.056Z,1010.00
2023-05-05T05:45:34.091Z,1011.00
2023-05-05T05:46:34.218Z,1015.00
2023-05-05T05:47:34.218Z,1016.00
2023-05-05T05:48:34.214Z,1014.00
2023-05-05T05:49:34.238Z,1013.00
2023-05-05T05:50:34.272Z,1010.00
2023-05-05T05:51:34.262Z,1033.00
2023-05-05T05:52:34.295Z,1156.00
2023-05-05T05:53:34.344Z,1179.00
2023-05-05T05:54:34.364Z,1200.00
2023-05-05T05:55:34.332Z,1228.00
2023-05-05T05:56:34.332Z,1240.00
2023-05-05T05:57:34.374Z,1319.00
2023-05-05T05:58:34.524Z,1336.00
2023-05-05T05:59:34.353Z,1390.00
2023-05-05T06:00:34.349Z,1394.00
2023-05-05T06:01:34.386Z,1399.00
2023-05-05T06:02:34.438Z,1390.00
2023-05-05T06:03:34.620Z,1391.00
2023-05-05T06:04:34.562Z,1395.00
2023-05-05T06:05:34.525Z,1384.00
2023-05-05T06:06:34.575Z,1379.00
2023-05-05T06:07:34.603Z,1388.00
2023-05-05T06:08:35.039Z,1431.00
2023-05-05T06:09:34.719Z,1436.00
2023-05-05T06:10:35.127Z,1260.00
2023-05-05T06:11:34.838Z,1315.00
2023-05-05T06:12:34.980Z,1402.00
2023-05-05T06:13:34.957Z,1403.00
2023-05-05T06:14:34.996Z,1396.00
2023-05-05T06:15:35.046Z,1394.00
2023-05-05T06:16:35.154Z,1402.00
2023-05-05T06:17:35.118Z,1410.00
2023-05-05T06:18:35.194Z,1411.00
2023-05-05T06:19:35.206Z,1416.00
2023-05-05T06:20:35.233Z,1421.00
2023-05-05T06:21:35.273Z,1439.00
2023-05-05T06:22:35.291Z,1448.00
2023-05-05T06:23:35.541Z,1451.00
2023-05-05T06:24:35.340Z,1458.00
2023-05-05T06:25:35.387Z,1465.00
2023-05-05T06:26:35.351Z,1473.00
2023-05-05T06:27:35.401Z,1474.00
2023-05-05T06:28:35.427Z,1479.00
2023-05-05T06:29:35.432Z,1481.00
2023-05-05T06:30:35.440Z,1482.00
2023-05-05T06:31:35.468Z,1483.00
2023-05-05T06:32:35.443Z,1498.00
2023-05-05T06:33:35.587Z,1504.00
2023-05-05T06:34:35.445Z,1504.00
2023-05-05T06:35:35.436Z,1498.00
2023-05-05T06:36:35.462Z,1503.00
2023-05-05T06:37:35.403Z,1506.00
2023-05-05T06:38:35.438Z,1510.00
2023-05-05T06:39:35.415Z,1514.00
2023-05-05T06:40:35.482Z,1522.00
2023-05-05T06:41:35.514Z,1527.00
2023-05-05T06:42:35.572Z,1532.00
2023-05-05T06:43:35.638Z,1535.00
2023-05-05T06:44:35.752Z,1539.00
2023-05-05T06:45:35.757Z,1548.00
2023-05-05T06:46:35.914Z,1546.00
2023-05-05T06:47:35.903Z,1536.00
2023-05-05T06:48:35.941Z,1527.00
2023-05-05T06:49:36.020Z,1530.00
2023-05-05T06:50:36.076Z,1533.00
2023-05-05T06:51:36.103Z,1548.00
2023-05-05T06:52:36.139Z,1586.00
2023-05-05T06:53:36.266Z,1616.00
2023-05-05T06:54:36.275Z,1609.00
2023-05-05T06:55:36.331Z,1600.00
2023-05-05T06:56:36.397Z,1597.00
2023-05-05T06:57:36.461Z,1591.00
2023-05-05T06:58:36.564Z,1583.00
2023-05-05T06:59:36.524Z,1578.00
2023-05-05T07:00:36.636Z,1571.00
2023-05-05T07:01:36.657Z,1566.00
2023-05-05T07:02:36.749Z,1564.00
2023-05-05T07:03:37.087Z,1561.00
2023-05-05T07:04:36.804Z,1555.00
2023-05-05T07:05:36.919Z,1553.00
2023-05-05T07:06:36.979Z,1551.00
2023-05-05T07:07:37.010Z,1547.00
2023-05-05T07:08:37.099Z,1542.00
2023-05-05T07:09:37.297Z,1539.00
2023-05-05T07:10:39.106Z,1534.00
2023-05-05T07:11:37.243Z,1532.00
2023-05-05T07:12:37.347Z,1526.00
2023-05-05T07:13:37.542Z,1524.00
2023-05-05T07:14:37.438Z,1523.00
2023-05-05T07:15:37.440Z,1522.00
2023-05-05T07:16:37.564Z,1522.00
2023-05-05T07:17:37.587Z,1520.00
2023-05-05T07:18:37.637Z,1518.00
2023-05-05T07:19:37.635Z,1518.00
2023-05-05T07:20:37.660Z,1517.00
2023-05-05T07:21:37.694Z,1515.00
2023-05-05T07:22:37.764Z,1516.00
2023-05-05T07:23:37.756Z,1516.00
2023-05-05T07:24:37.812Z,1512.00
2023-05-05T07:25:37.883Z,1511.00
2023-05-05T07:26:37.819Z,1510.00
2023-05-05T07:27:37.840Z,1509.00
2023-05-05T07:28:37.902Z,1512.00
2023-05-05T07:29:37.908Z,1514.00
2023-05-05T07:30:37.941Z,1514.00
2023-05-05T07:31:38.069Z,1515.00
2023-05-05T07:32:38.002Z,1513.00
2023-05-05T07:33:38.004Z,1510.00
2023-05-05T07:34:38.030Z,1512.00
2023-05-05T07:35:38.049Z,1509.00
2023-05-05T07:36:38.057Z,1508.00
2023-05-05T07:37:38.169Z,1507.00
2023-05-05T07:38:38.596Z,1503.00
2023-05-05T07:39:38.121Z,1502.00
2023-05-05T07:40:38.156Z,1499.00
2023-05-05T07:41:38.315Z,1499.00
2023-05-05T07:42:38.248Z,1494.00
2023-05-05T07:43:39.347Z,1490.00
2023-05-05T07:44:38.321Z,1490.00
2023-05-05T07:45:38.380Z,1489.00
2023-05-05T07:46:38.418Z,1492.00
2023-05-05T07:47:38.428Z,1536.00
2023-05-05T07:48:38.456Z,1615.00
2023-05-05T07:49:38.394Z,1637.00
2023-05-05T07:50:38.463Z,1718.00
2023-05-05T07:51:38.450Z,1769.00
2023-05-05T07:52:48.390Z,1808.00
2023-05-05T07:53:39.504Z,1820.00
2023-05-05T07:54:38.492Z,1821.00
2023-05-05T07:55:38.498Z,1816.00
2023-05-05T07:56:38.491Z,1806.00
2023-05-05T07:57:38.545Z,1734.00
2023-05-05T07:58:38.527Z,1728.00
2023-05-05T07:59:38.480Z,1706.00
2023-05-05T08:00:38.470Z,1677.00
2023-05-05T08:01:38.466Z,1657.00
2023-05-05T08:02:38.514Z,1630.00
2023-05-05T08:03:38.684Z,1571.00
2023-05-05T08:04:38.656Z,1563.00
2023-05-05T08:05:38.456Z,1553.00
2023-05-05T08:06:38.472Z,1536.00
2023-05-05T08:07:38.555Z,1522.00
2023-05-05T08:08:38.547Z,1513.00
2023-05-05T08:09:38.570Z,1498.00
2023-05-05T08:10:38.625Z,1479.00
2023-05-05T08:11:38.605Z,1466.00
2023-05-05T08:12:38.661Z,1457.00
2023-05-05T08:13:38.804Z,1448.00
2023-05-05T08:14:38.668Z,1431.00
2023-05-05T08:15:38.733Z,1421.00
2023-05-05T08:16:38.788Z,1401.00
2023-05-05T08:17:38.873Z,1393.00
2023-05-05T08:18:38.812Z,1388.00
2023-05-05T08:19:38.805Z,1383.00
2023-05-05T08:20:38.838Z,1378.00
2023-05-05T08:21:38.837Z,1376.00
2023-05-05T08:22:38.873Z,1369.00
2023-05-05T08:23:38.908Z,1366.00
2023-05-05T08:24:39.105Z,1361.00
2023-05-05T08:25:38.915Z,1358.00
2023-05-05T08:26:38.971Z,1351.00
2023-05-05T08:27:38.975Z,1348.00
2023-05-05T08:28:39.009Z,1345.00
2023-05-05T08:29:39.158Z,1342.00
2023-05-05T08:30:39.077Z,1341.00
2023-05-05T08:31:39.179Z,1341.00
2023-05-05T08:32:39.184Z,1337.00
2023-05-05T08:33:39.141Z,1336.00
2023-05-05T08:34:39.589Z,1334.00
2023-05-05T08:35:39.188Z,1330.00
2023-05-05T08:36:39.198Z,1325.00
2023-05-05T08:37:39.257Z,1323.00
2023-05-05T08:38:39.315Z,1321.00
2023-05-05T08:39:39.372Z,1316.00
2023-05-05T08:40:39.409Z,1308.00
2023-05-05T08:41:39.513Z,1261.00
2023-05-05T08:42:39.779Z,1305.00
2023-05-05T08:43:39.560Z,1346.00
2023-05-05T08:44:39.612Z,1375.00
2023-05-05T08:45:39.688Z,1416.00
2023-05-05T08:46:39.731Z,1444.00
2023-05-05T08:47:39.786Z,1506.00
2023-05-05T08:48:39.746Z,1566.00
2023-05-05T08:49:39.757Z,1571.00
2023-05-05T08:50:39.760Z,1619.00
2023-05-05T08:51:39.767Z,1623.00
2023-05-05T08:52:39.839Z,1633.00
2023-05-05T08:53:39.870Z,1668.00
2023-05-05T08:54:40.104Z,1700.00
2023-05-05T08:55:39.894Z,1765.00
2023-05-05T08:56:39.926Z,1765.00
2023-05-05T08:57:39.960Z,1757.00
2023-05-05T08:58:39.976Z,1738.00
2023-05-05T08:59:40.040Z,1732.00
2023-05-05T09:00:40.106Z,1728.00
2023-05-05T09:01:40.352Z,1725.00
2023-05-05T09:02:40.129Z,1719.00
2023-05-05T09:03:40.096Z,1714.00
2023-05-05T09:04:40.621Z,1709.00
2023-05-05T09:05:40.243Z,1706.00
2023-05-05T09:06:40.244Z,1702.00
2023-05-05T09:07:40.285Z,1696.00
2023-05-05T09:08:40.356Z,1693.00
2023-05-05T09:09:40.454Z,1690.00
2023-05-05T09:10:40.474Z,1689.00
2023-05-05T09:11:40.457Z,1685.00
2023-05-05T09:12:40.491Z,1681.00
2023-05-05T09:13:40.447Z,1681.00
2023-05-05T09:14:40.626Z,1677.00
2023-05-05T09:15:40.447Z,1677.00
2023-05-05T09:16:40.542Z,1674.00
2023-05-05T09:17:40.647Z,1674.00
2023-05-05T09:18:40.484Z,1673.00
2023-05-05T09:19:40.503Z,1675.00
2023-05-05T09:20:40.500Z,1675.00
2023-05-05T09:21:40.531Z,1676.00
2023-05-05T09:22:40.566Z,1676.00
2023-05-05T09:23:40.573Z,1678.00
2023-05-05T09:24:40.599Z,1677.00
2023-05-05T09:25:40.610Z,1675.00
2023-05-05T09:26:40.596Z,1672.00
2023-05-05T09:27:40.651Z,1670.00
2023-05-05T09:28:40.650Z,1669.00
2023-05-05T09:29:40.685Z,1668.00
2023-05-05T09:30:40.782Z,1669.00
2023-05-05T09:31:40.748Z,1671.00
2023-05-05T09:32:40.800Z,1669.00
2023-05-05T09:33:40.845Z,1669.00
2023-05-05T09:34:41.132Z,1669.00
2023-05-05T09:35:40.857Z,1670.00
2023-05-05T09:36:40.906Z,1669.00
2023-05-05T09:37:40.919Z,1666.00
2023-05-05T09:38:40.929Z,1668.00
2023-05-05T09:39:41.139Z,1668.00
2023-05-05T09:40:40.971Z,1665.00
2023-05-05T09:41:40.982Z,1662.00
2023-05-05T09:42:41.025Z,1662.00
2023-05-05T09:43:41.039Z,1659.00
2023-05-05T09:44:41.119Z,1658.00
2023-05-05T09:45:41.077Z,1660.00
2023-05-05T09:46:41.161Z,1657.00
2023-05-05T09:47:41.225Z,1659.00
2023-05-05T09:48:41.138Z,1663.00
2023-05-05T09:49:41.703Z,1683.00
2023-05-05T09:50:41.202Z,1693.00
2023-05-05T09:51:41.241Z,1802.00
2023-05-05T09:52:41.275Z,1926.00
2023-05-05T09:53:41.270Z,1941.00
2023-05-05T09:54:41.309Z,1771.00
2023-05-05T09:55:41.328Z,1557.00
2023-05-05T09:56:41.293Z,1797.00
2023-05-05T09:57:41.335Z,1707.00
2023-05-05T09:58:41.350Z,1666.00
2023-05-05T09:59:41.304Z,1657.00
2023-05-05T10:00:41.360Z,1684.00
2023-05-05T10:01:41.439Z,1508.00
2023-05-05T10:02:41.438Z,1446.00
2023-05-05T10:03:41.509Z,1488.00
2023-05-05T10:04:41.573Z,1370.00
2023-05-05T10:05:41.605Z,1452.00
2023-05-05T10:06:41.732Z,1762.00
2023-05-05T10:07:41.805Z,1603.00
2023-05-05T10:08:41.816Z,1869.00
2023-05-05T10:09:41.902Z,1613.00
2023-05-05T10:10:41.909Z,1489.00
2023-05-05T10:11:42.025Z,1695.00
2023-05-05T10:12:42.047Z,1469.00
2023-05-05T10:13:42.267Z,1649.00
2023-05-05T10:14:42.601Z,1623.00
2023-05-05T10:15:42.221Z,1391.00
2023-05-05T10:16:42.263Z,1607.00
2023-05-05T10:17:50.841Z,1518.00
2023-05-05T10:18:43.270Z,1331.00
2023-05-05T10:19:42.637Z,1316.00
2023-05-05T10:20:42.215Z,1190.00
2023-05-05T10:21:42.387Z,1271.00
2023-05-05T10:22:42.188Z,1256.00
2023-05-05T10:23:42.205Z,1282.00
2023-05-05T10:24:42.200Z,1402.00
2023-05-05T10:25:42.210Z,1307.00
2023-05-05T10:26:42.174Z,1280.00
2023-05-05T10:27:42.202Z,1249.00
2023-05-05T10:28:42.197Z,1124.00
2023-05-05T10:29:42.655Z,1256.00
2023-05-05T10:30:42.264Z,1098.00
2023-05-05T10:31:42.290Z,1023.00
2023-05-05T10:33:42.377Z,1226.00
2023-05-05T10:34:42.636Z,958.00
2023-05-05T10:35:42.257Z,1101.00
2023-05-05T10:36:42.297Z,1164.00
2023-05-05T10:37:42.275Z,1106.00
2023-05-05T10:38:42.261Z,1104.00
2023-05-05T10:39:42.620Z,1089.00
2023-05-05T10:40:42.264Z,914.00
2023-05-05T10:41:42.225Z,1051.00
2023-05-05T10:42:42.358Z,1205.00
2023-05-05T10:43:42.249Z,1216.00
2023-05-05T10:44:42.659Z,1376.00
2023-05-05T10:45:42.361Z,1433.00
2023-05-05T10:46:42.275Z,1323.00
2023-05-05T10:47:42.227Z,1280.00
2023-05-05T10:48:42.214Z,1194.00
2023-05-05T10:49:42.672Z,1178.00
2023-05-05T10:50:42.217Z,1148.00
2023-05-05T10:51:42.171Z,1114.00
2023-05-05T10:52:42.153Z,1048.00
2023-05-05T10:53:42.235Z,1063.00
2023-05-05T10:54:42.146Z,1069.00
2023-05-05T10:55:42.157Z,1071.00
2023-05-05T10:56:42.124Z,1071.00
2023-05-05T10:57:42.141Z,1071.00
2023-05-05T10:58:58.307Z,1071.00
2023-05-05T10:59:43.172Z,1073.00
2023-05-05T11:00:42.092Z,1075.00
2023-05-05T11:01:42.107Z,1082.00
2023-05-05T11:02:42.165Z,1086.00
2023-05-05T11:03:42.082Z,1090.00
2023-05-05T11:04:42.091Z,1089.00
2023-05-05T11:05:42.104Z,1089.00
2023-05-05T11:06:42.064Z,1088.00
2023-05-05T11:07:42.056Z,1085.00
2023-05-05T11:08:42.050Z,1086.00
2023-05-05T11:09:42.133Z,1085.00
2023-05-05T11:10:42.131Z,1086.00
2023-05-05T11:11:42.225Z,1085.00
2023-05-05T11:12:42.224Z,1084.00
2023-05-05T11:13:42.253Z,1081.00
2023-05-05T11:14:42.625Z,1082.00
2023-05-05T11:15:42.320Z,1084.00
2023-05-05T11:16:42.432Z,1084.00
2023-05-05T11:17:42.452Z,1083.00
2023-05-05T11:18:42.474Z,1081.00
2023-05-05T11:19:42.666Z,1080.00
2023-05-05T11:20:42.438Z,1079.00
2023-05-05T11:21:42.446Z,1081.00
2023-05-05T11:22:42.466Z,1080.00
2023-05-05T11:23:42.445Z,1082.00
2023-05-05T11:24:42.667Z,1083.00
2023-05-05T11:25:42.511Z,1081.00
2023-05-05T11:26:42.457Z,1082.00
2023-05-05T11:27:42.461Z,1081.00
2023-05-05T11:28:42.451Z,1081.00
2023-05-05T11:29:42.443Z,1085.00
2023-05-05T11:30:42.515Z,1083.00
2023-05-05T11:31:42.496Z,1084.00
2023-05-05T11:32:42.514Z,1083.00
2023-05-05T11:33:42.442Z,1083.00
2023-05-05T11:34:42.462Z,1088.00
2023-05-05T11:35:42.467Z,1091.00
2023-05-05T11:36:42.461Z,1091.00
2023-05-05T11:37:42.490Z,1093.00
2023-05-05T11:38:42.501Z,1091.00
2023-05-05T11:39:42.495Z,1091.00
2023-05-05T11:40:42.509Z,1089.00
2023-05-05T11:41:42.573Z,1091.00
2023-05-05T11:42:42.556Z,1093.00
2023-05-05T11:43:42.560Z,1092.00
2023-05-05T11:44:42.605Z,1095.00
2023-05-05T11:45:42.602Z,1095.00
2023-05-05T11:46:42.694Z,1094.00
2023-05-05T11:47:42.740Z,1094.00
2023-05-05T11:48:42.644Z,1093.00
2023-05-05T11:49:42.706Z,1089.00
2023-05-05T11:50:42.681Z,1091.00
2023-05-05T11:51:42.722Z,1089.00
2023-05-05T11:52:42.715Z,1090.00
2023-05-05T11:53:42.748Z,1092.00
2023-05-05T11:54:43.139Z,1093.00
2023-05-05T11:55:42.785Z,1088.00
2023-05-05T11:56:42.829Z,1088.00
2023-05-05T11:57:43.711Z,1091.00
2023-05-05T11:58:42.843Z,1091.00
2023-05-05T11:59:42.863Z,1089.00
2023-05-05T12:00:42.922Z,1089.00
2023-05-05T12:01:42.940Z,1086.00
2023-05-05T12:02:43.036Z,1086.00
2023-05-05T12:03:43.092Z,1087.00
2023-05-05T12:04:43.039Z,1086.00
2023-05-05T12:05:42.987Z,1085.00
2023-05-05T12:06:43.058Z,1084.00